sensor_id;sensor_type;location;lat;lon;timestamp;P1;durP1;ratioP1;P2;durP2;ratioP2
18875;SDS011;9570;50.854;13.778;2023-05-17T00:00:44;6.27;;;1.30;;
18875;SDS011;9570;50.854;13.778;2023-05-17T00:03:10;2.37;;;1.30;;
18875;SDS011;9570;50.854;13.778;2023-05-17T00:05:35;4.17;;;1.23;;
18875;SDS011;9570;50.854;13.778;2023-05-17T00:08:01;1.43;;;1.20;;
18875;SDS011;9570;50.854;13.778;2023-05-17T00:10:26;6.97;;;1.47;;
18875;SDS011;9570;50.854;13.778;2023-05-17T00:12:52;3.27;;;1.30;;
18875;SDS011;9570;50.854;13.778;2023-05-17T00:15:17;2.80;;;1.30;;
18875;SDS011;9570;50.854;13.778;2023-05-17T00:17:43;3.40;;;1.10;;
18875;SDS011;9570;50.854;13.778;2023-05-17T00:20:08;3.03;;;1.40;;
18875;SDS011;9570;50.854;13.778;2023-05-17T00:22:34;3.67;;;1.10;;
18875;SDS011;9570;50.854;13.778;2023-05-17T00:25:00;6.07;;;1.63;;
18875;SDS011;9570;50.854;13.778;2023-05-17T00:27:25;3.10;;;1.37;;
18875;SDS011;9570;50.854;13.778;2023-05-17T00:29:50;2.70;;;1.00;;
18875;SDS011;9570;50.854;13.778;2023-05-17T00:32:16;5.90;;;1.30;;
18875;SDS011;9570;50.854;13.778;2023-05-17T00:34:41;2.40;;;1.50;;
18875;SDS011;9570;50.854;13.778;2023-05-17T00:37:07;2.30;;;1.60;;
18875;SDS011;9570;50.854;13.778;2023-05-17T00:39:32;3.63;;;1.60;;
18875;SDS011;9570;50.854;13.778;2023-05-17T00:41:58;2.07;;;1.20;;
18875;SDS011;9570;50.854;13.778;2023-05-17T00:44:25;2.97;;;1.20;;
18875;SDS011;9570;50.854;13.778;2023-05-17T00:46:50;4.70;;;1.20;;
18875;SDS011;9570;50.854;13.778;2023-05-17T00:49:16;3.13;;;1.50;;
18875;SDS011;9570;50.854;13.778;2023-05-17T00:51:41;4.90;;;1.50;;
18875;SDS011;9570;50.854;13.778;2023-05-17T00:54:08;4.13;;;1.40;;
18875;SDS011;9570;50.854;13.778;2023-05-17T00:56:33;2.13;;;1.30;;
18875;SDS011;9570;50.854;13.778;2023-05-17T00:58:59;2.37;;;1.13;;
18875;SDS011;9570;50.854;13.778;2023-05-17T01:01:28;5.23;;;1.40;;
18875;SDS011;9570;50.854;13.778;2023-05-17T01:03:54;3.60;;;1.97;;
18875;SDS011;9570;50.854;13.778;2023-05-17T01:06:20;3.07;;;1.30;;
18875;SDS011;9570;50.854;13.778;2023-05-17T01:08:46;3.27;;;1.20;;
18875;SDS011;9570;50.854;13.778;2023-05-17T01:13:48;3.67;;;1.37;;
18875;SDS011;9570;50.854;13.778;2023-05-17T01:17:11;2.57;;;1.37;;
18875;SDS011;9570;50.854;13.778;2023-05-17T01:19:15;2.50;;;1.13;;
18875;SDS011;9570;50.854;13.778;2023-05-17T01:22:10;2.93;;;1.20;;
18875;SDS011;9570;50.854;13.778;2023-05-17T01:25:19;3.47;;;1.57;;
18875;SDS011;9570;50.854;13.778;2023-05-17T01:28:21;2.43;;;1.40;;
18875;SDS011;9570;50.854;13.778;2023-05-17T01:30:49;3.60;;;1.60;;
18875;SDS011;9570;50.854;13.778;2023-05-17T01:33:16;5.80;;;1.53;;
18875;SDS011;9570;50.854;13.778;2023-05-17T01:35:43;2.13;;;1.30;;
18875;SDS011;9570;50.854;13.778;2023-05-17T01:38:08;2.97;;;1.30;;
18875;SDS011;9570;50.854;13.778;2023-05-17T01:40:34;4.03;;;1.30;;
18875;SDS011;9570;50.854;13.778;2023-05-17T01:43:05;2.07;;;1.20;;
18875;SDS011;9570;50.854;13.778;2023-05-17T01:45:40;3.67;;;1.30;;
18875;SDS011;9570;50.854;13.778;2023-05-17T01:48:16;4.30;;;1.50;;
18875;SDS011;9570;50.854;13.778;2023-05-17T01:50:58;2.80;;;1.37;;
18875;SDS011;9570;50.854;13.778;2023-05-17T01:53:28;3.17;;;1.30;;
18875;SDS011;9570;50.854;13.778;2023-05-17T01:55:59;3.17;;;1.20;;
18875;SDS011;9570;50.854;13.778;2023-05-17T01:58:28;4.60;;;1.57;;
18875;SDS011;9570;50.854;13.778;2023-05-17T02:00:55;5.03;;;1.37;;
18875;SDS011;9570;50.854;13.778;2023-05-17T02:03:22;3.20;;;1.50;;
18875;SDS011;9570;50.854;13.778;2023-05-17T02:05:48;4.27;;;1.60;;
18875;SDS011;9570;50.854;13.778;2023-05-17T02:08:13;2.67;;;1.43;;
18875;SDS011;9570;50.854;13.778;2023-05-17T02:10:39;6.43;;;1.43;;
18875;SDS011;9570;50.854;13.778;2023-05-17T02:13:04;3.17;;;1.37;;
18875;SDS011;9570;50.854;13.778;2023-05-17T02:15:30;2.57;;;1.30;;
18875;SDS011;9570;50.854;13.778;2023-05-17T02:17:56;3.77;;;1.57;;
18875;SDS011;9570;50.854;13.778;2023-05-17T02:20:21;8.97;;;1.40;;
18875;SDS011;9570;50.854;13.778;2023-05-17T02:22:47;3.73;;;1.50;;
18875;SDS011;9570;50.854;13.778;2023-05-17T02:25:13;1.73;;;1.13;;
18875;SDS011;9570;50.854;13.778;2023-05-17T02:27:39;4.40;;;1.50;;
18875;SDS011;9570;50.854;13.778;2023-05-17T02:30:04;5.30;;;1.53;;
18875;SDS011;9570;50.854;13.778;2023-05-17T02:32:31;2.77;;;1.30;;
18875;SDS011;9570;50.854;13.778;2023-05-17T02:34:57;4.40;;;1.63;;
18875;SDS011;9570;50.854;13.778;2023-05-17T02:37:23;3.53;;;1.70;;
18875;SDS011;9570;50.854;13.778;2023-05-17T02:39:49;4.83;;;1.57;;
18875;SDS011;9570;50.854;13.778;2023-05-17T02:42:14;4.60;;;1.90;;
18875;SDS011;9570;50.854;13.778;2023-05-17T02:44:40;4.80;;;1.73;;
18875;SDS011;9570;50.854;13.778;2023-05-17T02:47:06;4.90;;;1.80;;
18875;SDS011;9570;50.854;13.778;2023-05-17T02:49:31;5.27;;;1.80;;
18875;SDS011;9570;50.854;13.778;2023-05-17T02:51:56;4.97;;;1.80;;
18875;SDS011;9570;50.854;13.778;2023-05-17T02:54:22;5.80;;;1.73;;
18875;SDS011;9570;50.854;13.778;2023-05-17T02:56:48;5.47;;;2.00;;
18875;SDS011;9570;50.854;13.778;2023-05-17T02:59:13;3.90;;;1.77;;
18875;SDS011;9570;50.854;13.778;2023-05-17T03:01:39;3.27;;;1.87;;
18875;SDS011;9570;50.854;13.778;2023-05-17T03:04:04;5.00;;;1.90;;
18875;SDS011;9570;50.854;13.778;2023-05-17T03:06:30;4.83;;;1.90;;
18875;SDS011;9570;50.854;13.778;2023-05-17T03:08:55;2.90;;;1.70;;
18875;SDS011;9570;50.854;13.778;2023-05-17T03:11:21;5.50;;;2.13;;
18875;SDS011;9570;50.854;13.778;2023-05-17T03:13:46;5.67;;;2.00;;
18875;SDS011;9570;50.854;13.778;2023-05-17T03:16:15;6.23;;;2.20;;
18875;SDS011;9570;50.854;13.778;2023-05-17T03:18:41;3.67;;;1.90;;
18875;SDS011;9570;50.854;13.778;2023-05-17T03:21:07;5.67;;;2.00;;
18875;SDS011;9570;50.854;13.778;2023-05-17T03:23:32;8.17;;;2.60;;
18875;SDS011;9570;50.854;13.778;2023-05-17T03:25:58;4.40;;;2.20;;
18875;SDS011;9570;50.854;13.778;2023-05-17T03:28:23;6.40;;;2.33;;
18875;SDS011;9570;50.854;13.778;2023-05-17T03:30:49;4.30;;;2.30;;
18875;SDS011;9570;50.854;13.778;2023-05-17T03:33:14;6.83;;;2.20;;
18875;SDS011;9570;50.854;13.778;2023-05-17T03:35:40;6.13;;;2.57;;
18875;SDS011;9570;50.854;13.778;2023-05-17T03:38:05;6.87;;;2.40;;
18875;SDS011;9570;50.854;13.778;2023-05-17T03:40:31;5.90;;;2.43;;
18875;SDS011;9570;50.854;13.778;2023-05-17T03:42:56;7.33;;;2.17;;
18875;SDS011;9570;50.854;13.778;2023-05-17T03:45:22;8.13;;;2.20;;
18875;SDS011;9570;50.854;13.778;2023-05-17T03:47:47;7.40;;;2.57;;
18875;SDS011;9570;50.854;13.778;2023-05-17T03:50:12;4.83;;;2.20;;
18875;SDS011;9570;50.854;13.778;2023-05-17T03:52:38;3.10;;;2.10;;
18875;SDS011;9570;50.854;13.778;2023-05-17T03:55:05;4.63;;;2.13;;
18875;SDS011;9570;50.854;13.778;2023-05-17T03:57:31;5.47;;;2.10;;
18875;SDS011;9570;50.854;13.778;2023-05-17T03:59:57;6.47;;;2.53;;
18875;SDS011;9570;50.854;13.778;2023-05-17T04:02:23;5.23;;;2.77;;
18875;SDS011;9570;50.854;13.778;2023-05-17T04:04:51;5.90;;;2.40;;
18875;SDS011;9570;50.854;13.778;2023-05-17T04:07:17;7.53;;;2.40;;
18875;SDS011;9570;50.854;13.778;2023-05-17T04:09:43;4.20;;;2.30;;
18875;SDS011;9570;50.854;13.778;2023-05-17T04:12:08;6.77;;;3.13;;
18875;SDS011;9570;50.854;13.778;2023-05-17T04:14:36;4.83;;;2.17;;
18875;SDS011;9570;50.854;13.778;2023-05-17T04:17:02;7.27;;;2.97;;
18875;SDS011;9570;50.854;13.778;2023-05-17T04:19:28;7.50;;;2.90;;
18875;SDS011;9570;50.854;13.778;2023-05-17T04:21:53;7.20;;;2.70;;
18875;SDS011;9570;50.854;13.778;2023-05-17T04:24:19;8.83;;;2.60;;
18875;SDS011;9570;50.854;13.778;2023-05-17T04:26:45;7.00;;;2.40;;
18875;SDS011;9570;50.854;13.778;2023-05-17T04:29:10;6.10;;;2.90;;
18875;SDS011;9570;50.854;13.778;2023-05-17T04:31:36;9.97;;;2.97;;
18875;SDS011;9570;50.854;13.778;2023-05-17T04:34:01;7.13;;;2.53;;
18875;SDS011;9570;50.854;13.778;2023-05-17T04:36:27;6.47;;;2.60;;
18875;SDS011;9570;50.854;13.778;2023-05-17T04:38:52;6.90;;;2.37;;
18875;SDS011;9570;50.854;13.778;2023-05-17T04:41:17;5.17;;;2.80;;
18875;SDS011;9570;50.854;13.778;2023-05-17T04:43:43;8.67;;;2.70;;
18875;SDS011;9570;50.854;13.778;2023-05-17T04:46:08;12.47;;;3.07;;
18875;SDS011;9570;50.854;13.778;2023-05-17T04:48:34;7.17;;;2.60;;
18875;SDS011;9570;50.854;13.778;2023-05-17T04:51:03;7.53;;;2.90;;
18875;SDS011;9570;50.854;13.778;2023-05-17T04:53:29;7.47;;;2.90;;
18875;SDS011;9570;50.854;13.778;2023-05-17T04:55:55;10.77;;;3.50;;
18875;SDS011;9570;50.854;13.778;2023-05-17T04:58:21;15.10;;;3.13;;
18875;SDS011;9570;50.854;13.778;2023-05-17T05:00:48;10.33;;;3.37;;
18875;SDS011;9570;50.854;13.778;2023-05-17T05:03:14;10.60;;;3.20;;
18875;SDS011;9570;50.854;13.778;2023-05-17T05:05:39;7.07;;;3.43;;
18875;SDS011;9570;50.854;13.778;2023-05-17T05:08:05;8.80;;;3.10;;
18875;SDS011;9570;50.854;13.778;2023-05-17T05:10:30;7.93;;;3.00;;
18875;SDS011;9570;50.854;13.778;2023-05-17T05:12:56;9.00;;;3.30;;
18875;SDS011;9570;50.854;13.778;2023-05-17T05:15:22;8.70;;;3.17;;
18875;SDS011;9570;50.854;13.778;2023-05-17T05:17:47;7.73;;;3.20;;
18875;SDS011;9570;50.854;13.778;2023-05-17T05:20:13;12.60;;;3.43;;
18875;SDS011;9570;50.854;13.778;2023-05-17T05:22:39;10.37;;;3.30;;
18875;SDS011;9570;50.854;13.778;2023-05-17T05:25:05;6.43;;;3.30;;
18875;SDS011;9570;50.854;13.778;2023-05-17T05:27:31;9.57;;;3.60;;
18875;SDS011;9570;50.854;13.778;2023-05-17T05:29:56;7.60;;;3.20;;
18875;SDS011;9570;50.854;13.778;2023-05-17T05:32:22;9.40;;;3.57;;
18875;SDS011;9570;50.854;13.778;2023-05-17T05:34:47;8.00;;;3.67;;
18875;SDS011;9570;50.854;13.778;2023-05-17T05:37:12;11.67;;;4.03;;
18875;SDS011;9570;50.854;13.778;2023-05-17T05:39:38;12.80;;;3.20;;
18875;SDS011;9570;50.854;13.778;2023-05-17T05:42:03;8.47;;;3.80;;
18875;SDS011;9570;50.854;13.778;2023-05-17T05:44:30;9.83;;;3.77;;
18875;SDS011;9570;50.854;13.778;2023-05-17T05:46:55;11.13;;;3.70;;
18875;SDS011;9570;50.854;13.778;2023-05-17T05:49:21;11.00;;;3.77;;
18875;SDS011;9570;50.854;13.778;2023-05-17T05:51:46;8.37;;;3.87;;
18875;SDS011;9570;50.854;13.778;2023-05-17T05:54:12;10.23;;;3.23;;
18875;SDS011;9570;50.854;13.778;2023-05-17T05:56:37;8.40;;;3.60;;
18875;SDS011;9570;50.854;13.778;2023-05-17T05:59:03;10.97;;;4.10;;
18875;SDS011;9570;50.854;13.778;2023-05-17T06:01:28;10.27;;;4.00;;
18875;SDS011;9570;50.854;13.778;2023-05-17T06:03:54;11.47;;;4.40;;
18875;SDS011;9570;50.854;13.778;2023-05-17T06:06:19;11.00;;;4.10;;
18875;SDS011;9570;50.854;13.778;2023-05-17T06:08:45;9.50;;;3.80;;
18875;SDS011;9570;50.854;13.778;2023-05-17T06:11:11;14.73;;;4.87;;
18875;SDS011;9570;50.854;13.778;2023-05-17T06:13:39;9.37;;;4.10;;
18875;SDS011;9570;50.854;13.778;2023-05-17T06:16:05;13.07;;;3.90;;
18875;SDS011;9570;50.854;13.778;2023-05-17T06:18:31;10.27;;;4.03;;
18875;SDS011;9570;50.854;13.778;2023-05-17T06:20:57;15.20;;;4.23;;
18875;SDS011;9570;50.854;13.778;2023-05-17T06:23:22;9.67;;;3.90;;
18875;SDS011;9570;50.854;13.778;2023-05-17T06:25:48;9.60;;;4.43;;
18875;SDS011;9570;50.854;13.778;2023-05-17T06:28:13;11.40;;;4.37;;
18875;SDS011;9570;50.854;13.778;2023-05-17T06:30:39;12.10;;;4.40;;
18875;SDS011;9570;50.854;13.778;2023-05-17T06:33:04;10.97;;;4.07;;
18875;SDS011;9570;50.854;13.778;2023-05-17T06:35:30;12.43;;;4.37;;
18875;SDS011;9570;50.854;13.778;2023-05-17T06:37:55;11.83;;;4.60;;
18875;SDS011;9570;50.854;13.778;2023-05-17T06:40:21;10.10;;;4.33;;
18875;SDS011;9570;50.854;13.778;2023-05-17T06:42:47;10.17;;;4.20;;
18875;SDS011;9570;50.854;13.778;2023-05-17T06:45:12;10.87;;;4.50;;
18875;SDS011;9570;50.854;13.778;2023-05-17T06:47:37;8.07;;;3.70;;
18875;SDS011;9570;50.854;13.778;2023-05-17T06:50:03;11.40;;;3.90;;
18875;SDS011;9570;50.854;13.778;2023-05-17T06:52:30;7.93;;;3.73;;
18875;SDS011;9570;50.854;13.778;2023-05-17T06:54:55;9.27;;;3.73;;
18875;SDS011;9570;50.854;13.778;2023-05-17T06:57:20;9.80;;;3.77;;
18875;SDS011;9570;50.854;13.778;2023-05-17T06:59:47;10.07;;;4.23;;
18875;SDS011;9570;50.854;13.778;2023-05-17T07:02:13;12.30;;;4.20;;
18875;SDS011;9570;50.854;13.778;2023-05-17T07:04:38;10.73;;;4.03;;
18875;SDS011;9570;50.854;13.778;2023-05-17T07:07:03;14.37;;;4.53;;
18875;SDS011;9570;50.854;13.778;2023-05-17T07:09:29;11.17;;;4.00;;
18875;SDS011;9570;50.854;13.778;2023-05-17T07:11:54;9.07;;;4.13;;
18875;SDS011;9570;50.854;13.778;2023-05-17T07:14:20;11.90;;;4.63;;
18875;SDS011;9570;50.854;13.778;2023-05-17T07:16:45;9.30;;;4.20;;
18875;SDS011;9570;50.854;13.778;2023-05-17T07:19:13;9.60;;;3.80;;
18875;SDS011;9570;50.854;13.778;2023-05-17T07:21:38;10.50;;;4.27;;
18875;SDS011;9570;50.854;13.778;2023-05-17T07:24:04;10.40;;;3.93;;
18875;SDS011;9570;50.854;13.778;2023-05-17T07:26:29;11.37;;;3.90;;
18875;SDS011;9570;50.854;13.778;2023-05-17T07:28:55;10.83;;;4.20;;
18875;SDS011;9570;50.854;13.778;2023-05-17T07:31:21;15.70;;;4.50;;
18875;SDS011;9570;50.854;13.778;2023-05-17T07:33:46;7.67;;;4.00;;
18875;SDS011;9570;50.854;13.778;2023-05-17T07:36:12;9.03;;;4.37;;
18875;SDS011;9570;50.854;13.778;2023-05-17T07:38:37;9.73;;;4.23;;
18875;SDS011;9570;50.854;13.778;2023-05-17T07:41:03;8.50;;;3.93;;
18875;SDS011;9570;50.854;13.778;2023-05-17T07:43:33;11.73;;;3.90;;
18875;SDS011;9570;50.854;13.778;2023-05-17T07:46:02;8.93;;;3.97;;
18875;SDS011;9570;50.854;13.778;2023-05-17T07:48:27;7.67;;;4.00;;
18875;SDS011;9570;50.854;13.778;2023-05-17T07:50:53;7.00;;;3.50;;
18875;SDS011;9570;50.854;13.778;2023-05-17T07:53:18;9.43;;;4.10;;
18875;SDS011;9570;50.854;13.778;2023-05-17T07:55:44;10.43;;;4.23;;
18875;SDS011;9570;50.854;13.778;2023-05-17T07:58:10;12.77;;;3.80;;
18875;SDS011;9570;50.854;13.778;2023-05-17T08:00:36;11.23;;;4.10;;
18875;SDS011;9570;50.854;13.778;2023-05-17T08:03:01;8.23;;;3.77;;
18875;SDS011;9570;50.854;13.778;2023-05-17T08:05:27;10.23;;;4.47;;
18875;SDS011;9570;50.854;13.778;2023-05-17T08:07:52;7.83;;;3.73;;
18875;SDS011;9570;50.854;13.778;2023-05-17T08:10:18;9.10;;;3.60;;
18875;SDS011;9570;50.854;13.778;2023-05-17T08:12:43;8.47;;;3.70;;
18875;SDS011;9570;50.854;13.778;2023-05-17T08:15:10;10.80;;;4.00;;
18875;SDS011;9570;50.854;13.778;2023-05-17T08:17:35;10.77;;;3.53;;
18875;SDS011;9570;50.854;13.778;2023-05-17T08:20:01;10.83;;;3.23;;
18875;SDS011;9570;50.854;13.778;2023-05-17T08:22:26;12.87;;;3.50;;
18875;SDS011;9570;50.854;13.778;2023-05-17T08:24:52;10.03;;;3.10;;
18875;SDS011;9570;50.854;13.778;2023-05-17T08:27:17;12.97;;;3.90;;
18875;SDS011;9570;50.854;13.778;2023-05-17T08:29:43;9.90;;;3.73;;
18875;SDS011;9570;50.854;13.778;2023-05-17T08:32:08;14.20;;;4.10;;
18875;SDS011;9570;50.854;13.778;2023-05-17T08:34:34;12.57;;;4.07;;
18875;SDS011;9570;50.854;13.778;2023-05-17T08:37:00;7.57;;;3.40;;
18875;SDS011;9570;50.854;13.778;2023-05-17T08:39:26;6.33;;;3.73;;
18875;SDS011;9570;50.854;13.778;2023-05-17T08:41:51;7.80;;;3.20;;
18875;SDS011;9570;50.854;13.778;2023-05-17T08:44:17;10.00;;;3.20;;
18875;SDS011;9570;50.854;13.778;2023-05-17T08:46:44;11.03;;;3.50;;
18875;SDS011;9570;50.854;13.778;2023-05-17T08:49:18;7.80;;;3.37;;
18875;SDS011;9570;50.854;13.778;2023-05-17T08:51:48;12.77;;;5.47;;
18875;SDS011;9570;50.854;13.778;2023-05-17T08:54:14;9.53;;;3.13;;
18875;SDS011;9570;50.854;13.778;2023-05-17T08:56:39;6.40;;;3.27;;
18875;SDS011;9570;50.854;13.778;2023-05-17T08:59:07;10.47;;;3.67;;
18875;SDS011;9570;50.854;13.778;2023-05-17T09:01:37;9.53;;;3.77;;
18875;SDS011;9570;50.854;13.778;2023-05-17T09:04:05;8.77;;;3.30;;
18875;SDS011;9570;50.854;13.778;2023-05-17T09:06:33;9.93;;;3.73;;
18875;SDS011;9570;50.854;13.778;2023-05-17T09:09:00;10.17;;;3.47;;
18875;SDS011;9570;50.854;13.778;2023-05-17T09:11:29;9.70;;;5.00;;
18875;SDS011;9570;50.854;13.778;2023-05-17T09:13:57;11.07;;;3.77;;
18875;SDS011;9570;50.854;13.778;2023-05-17T09:16:24;8.60;;;3.50;;
18875;SDS011;9570;50.854;13.778;2023-05-17T09:18:52;10.43;;;3.30;;
18875;SDS011;9570;50.854;13.778;2023-05-17T09:21:19;8.17;;;3.60;;
18875;SDS011;9570;50.854;13.778;2023-05-17T09:23:45;11.27;;;3.93;;
18875;SDS011;9570;50.854;13.778;2023-05-17T09:26:11;10.97;;;3.33;;
18875;SDS011;9570;50.854;13.778;2023-05-17T09:28:38;8.43;;;3.40;;
18875;SDS011;9570;50.854;13.778;2023-05-17T09:31:05;9.43;;;3.40;;
18875;SDS011;9570;50.854;13.778;2023-05-17T09:33:32;10.30;;;3.47;;
18875;SDS011;9570;50.854;13.778;2023-05-17T09:35:57;6.23;;;3.17;;
18875;SDS011;9570;50.854;13.778;2023-05-17T09:38:24;8.80;;;3.33;;
18875;SDS011;9570;50.854;13.778;2023-05-17T09:40:51;8.60;;;3.27;;
18875;SDS011;9570;50.854;13.778;2023-05-17T09:43:21;7.97;;;3.00;;
18875;SDS011;9570;50.854;13.778;2023-05-17T09:45:53;9.83;;;3.40;;
18875;SDS011;9570;50.854;13.778;2023-05-17T09:48:20;7.63;;;3.60;;
18875;SDS011;9570;50.854;13.778;2023-05-17T09:50:46;7.33;;;3.30;;
18875;SDS011;9570;50.854;13.778;2023-05-17T09:56:01;7.93;;;3.70;;
18875;SDS011;9570;50.854;13.778;2023-05-17T09:58:30;9.40;;;3.80;;
18875;SDS011;9570;50.854;13.778;2023-05-17T10:01:00;7.23;;;3.30;;
18875;SDS011;9570;50.854;13.778;2023-05-17T10:03:34;11.27;;;4.03;;
18875;SDS011;9570;50.854;13.778;2023-05-17T10:06:09;7.80;;;3.57;;
18875;SDS011;9570;50.854;13.778;2023-05-17T10:08:37;10.87;;;3.37;;
18875;SDS011;9570;50.854;13.778;2023-05-17T10:11:08;6.67;;;3.37;;
18875;SDS011;9570;50.854;13.778;2023-05-17T10:13:35;12.43;;;3.63;;
18875;SDS011;9570;50.854;13.778;2023-05-17T10:16:05;6.90;;;3.27;;
18875;SDS011;9570;50.854;13.778;2023-05-17T10:18:31;8.10;;;3.10;;
18875;SDS011;9570;50.854;13.778;2023-05-17T10:20:57;9.53;;;3.80;;
18875;SDS011;9570;50.854;13.778;2023-05-17T10:23:24;7.63;;;3.30;;
18875;SDS011;9570;50.854;13.778;2023-05-17T10:25:51;5.97;;;2.77;;
18875;SDS011;9570;50.854;13.778;2023-05-17T10:28:17;6.90;;;2.93;;
18875;SDS011;9570;50.854;13.778;2023-05-17T10:30:44;5.60;;;3.27;;
18875;SDS011;9570;50.854;13.778;2023-05-17T10:33:10;14.33;;;6.40;;
18875;SDS011;9570;50.854;13.778;2023-05-17T10:35:38;15.80;;;6.87;;
18875;SDS011;9570;50.854;13.778;2023-05-17T10:38:07;8.37;;;3.90;;
18875;SDS011;9570;50.854;13.778;2023-05-17T10:40:32;8.60;;;3.30;;
18875;SDS011;9570;50.854;13.778;2023-05-17T10:43:00;8.20;;;2.90;;
18875;SDS011;9570;50.854;13.778;2023-05-17T10:45:27;11.60;;;3.53;;
18875;SDS011;9570;50.854;13.778;2023-05-17T10:47:53;7.20;;;3.47;;
18875;SDS011;9570;50.854;13.778;2023-05-17T10:50:23;7.57;;;3.50;;
18875;SDS011;9570;50.854;13.778;2023-05-17T10:52:50;8.37;;;3.63;;
18875;SDS011;9570;50.854;13.778;2023-05-17T10:55:20;10.00;;;3.50;;
18875;SDS011;9570;50.854;13.778;2023-05-17T10:58:07;7.90;;;3.43;;
18875;SDS011;9570;50.854;13.778;2023-05-17T11:00:37;7.43;;;3.57;;
18875;SDS011;9570;50.854;13.778;2023-05-17T11:03:18;8.83;;;3.10;;
18875;SDS011;9570;50.854;13.778;2023-05-17T11:08:36;7.80;;;3.60;;
18875;SDS011;9570;50.854;13.778;2023-05-17T11:11:10;8.43;;;2.90;;
18875;SDS011;9570;50.854;13.778;2023-05-17T11:13:49;7.97;;;2.97;;
18875;SDS011;9570;50.854;13.778;2023-05-17T11:16:26;8.27;;;2.77;;
18875;SDS011;9570;50.854;13.778;2023-05-17T11:19:05;8.00;;;3.03;;
18875;SDS011;9570;50.854;13.778;2023-05-17T11:21:31;10.70;;;3.13;;
18875;SDS011;9570;50.854;13.778;2023-05-17T11:23:58;10.47;;;3.20;;
18875;SDS011;9570;50.854;13.778;2023-05-17T11:26:32;6.80;;;2.63;;
18875;SDS011;9570;50.854;13.778;2023-05-17T11:29:03;6.53;;;2.17;;
18875;SDS011;9570;50.854;13.778;2023-05-17T11:31:33;25.83;;;11.70;;
18875;SDS011;9570;50.854;13.778;2023-05-17T11:34:01;12.40;;;3.67;;
18875;SDS011;9570;50.854;13.778;2023-05-17T11:36:27;8.00;;;2.43;;
18875;SDS011;9570;50.854;13.778;2023-05-17T11:39:09;7.50;;;2.40;;
18875;SDS011;9570;50.854;13.778;2023-05-17T11:41:41;8.53;;;3.00;;
18875;SDS011;9570;50.854;13.778;2023-05-17T11:44:13;8.00;;;2.73;;
18875;SDS011;9570;50.854;13.778;2023-05-17T11:46:39;9.03;;;2.87;;
18875;SDS011;9570;50.854;13.778;2023-05-17T11:49:05;5.93;;;2.33;;
18875;SDS011;9570;50.854;13.778;2023-05-17T11:51:31;9.53;;;2.60;;
18875;SDS011;9570;50.854;13.778;2023-05-17T11:53:57;7.17;;;2.70;;
18875;SDS011;9570;50.854;13.778;2023-05-17T11:56:27;7.13;;;2.60;;
18875;SDS011;9570;50.854;13.778;2023-05-17T11:58:58;8.10;;;2.63;;
18875;SDS011;9570;50.854;13.778;2023-05-17T12:01:24;6.17;;;2.70;;
18875;SDS011;9570;50.854;13.778;2023-05-17T12:03:54;5.70;;;2.43;;
18875;SDS011;9570;50.854;13.778;2023-05-17T12:06:23;9.23;;;2.60;;
18875;SDS011;9570;50.854;13.778;2023-05-17T12:08:49;10.97;;;2.40;;
18875;SDS011;9570;50.854;13.778;2023-05-17T12:11:15;12.00;;;2.60;;
18875;SDS011;9570;50.854;13.778;2023-05-17T12:13:41;6.80;;;2.70;;
18875;SDS011;9570;50.854;13.778;2023-05-17T12:16:10;8.77;;;2.40;;
18875;SDS011;9570;50.854;13.778;2023-05-17T12:18:38;7.57;;;2.87;;
18875;SDS011;9570;50.854;13.778;2023-05-17T12:21:05;8.13;;;2.87;;
18875;SDS011;9570;50.854;13.778;2023-05-17T12:23:42;8.53;;;2.60;;
18875;SDS011;9570;50.854;13.778;2023-05-17T12:26:09;10.47;;;2.67;;
18875;SDS011;9570;50.854;13.778;2023-05-17T12:28:38;7.40;;;2.00;;
18875;SDS011;9570;50.854;13.778;2023-05-17T12:31:08;9.33;;;2.37;;
18875;SDS011;9570;50.854;13.778;2023-05-17T12:33:40;7.03;;;2.13;;
18875;SDS011;9570;50.854;13.778;2023-05-17T12:36:09;14.83;;;2.43;;
18875;SDS011;9570;50.854;13.778;2023-05-17T12:38:36;6.90;;;2.27;;
18875;SDS011;9570;50.854;13.778;2023-05-17T12:41:04;9.57;;;2.20;;
18875;SDS011;9570;50.854;13.778;2023-05-17T12:43:34;5.83;;;2.37;;
18875;SDS011;9570;50.854;13.778;2023-05-17T12:46:22;6.93;;;2.23;;
18875;SDS011;9570;50.854;13.778;2023-05-17T12:48:48;8.67;;;2.50;;
18875;SDS011;9570;50.854;13.778;2023-05-17T12:51:16;6.07;;;2.40;;
18875;SDS011;9570;50.854;13.778;2023-05-17T12:53:43;7.57;;;2.57;;
18875;SDS011;9570;50.854;13.778;2023-05-17T12:56:17;7.80;;;2.73;;
18875;SDS011;9570;50.854;13.778;2023-05-17T12:59:02;13.43;;;2.40;;
18875;SDS011;9570;50.854;13.778;2023-05-17T13:01:34;7.70;;;2.47;;
18875;SDS011;9570;50.854;13.778;2023-05-17T13:04:02;11.67;;;3.20;;
18875;SDS011;9570;50.854;13.778;2023-05-17T13:06:27;9.43;;;2.47;;
18875;SDS011;9570;50.854;13.778;2023-05-17T13:08:57;6.33;;;2.30;;
18875;SDS011;9570;50.854;13.778;2023-05-17T13:11:25;8.20;;;2.47;;
18875;SDS011;9570;50.854;13.778;2023-05-17T13:13:51;9.67;;;2.50;;
18875;SDS011;9570;50.854;13.778;2023-05-17T13:16:16;7.10;;;2.50;;
18875;SDS011;9570;50.854;13.778;2023-05-17T13:18:51;8.30;;;2.90;;
18875;SDS011;9570;50.854;13.778;2023-05-17T13:21:17;7.17;;;2.33;;
18875;SDS011;9570;50.854;13.778;2023-05-17T13:23:47;8.00;;;2.37;;
18875;SDS011;9570;50.854;13.778;2023-05-17T13:26:14;8.90;;;2.50;;
18875;SDS011;9570;50.854;13.778;2023-05-17T13:28:41;7.67;;;2.27;;
18875;SDS011;9570;50.854;13.778;2023-05-17T13:31:06;8.00;;;2.50;;
18875;SDS011;9570;50.854;13.778;2023-05-17T13:33:32;6.97;;;2.27;;
18875;SDS011;9570;50.854;13.778;2023-05-17T13:35:57;9.23;;;2.40;;
18875;SDS011;9570;50.854;13.778;2023-05-17T13:38:23;9.83;;;2.83;;
18875;SDS011;9570;50.854;13.778;2023-05-17T13:40:48;5.43;;;2.40;;
18875;SDS011;9570;50.854;13.778;2023-05-17T13:43:15;7.37;;;2.50;;
18875;SDS011;9570;50.854;13.778;2023-05-17T13:45:40;7.03;;;2.50;;
18875;SDS011;9570;50.854;13.778;2023-05-17T13:48:06;6.77;;;2.60;;
18875;SDS011;9570;50.854;13.778;2023-05-17T13:50:31;6.00;;;2.40;;
18875;SDS011;9570;50.854;13.778;2023-05-17T13:52:57;8.33;;;3.00;;
18875;SDS011;9570;50.854;13.778;2023-05-17T13:55:23;7.40;;;2.47;;
18875;SDS011;9570;50.854;13.778;2023-05-17T13:57:49;7.23;;;2.43;;
18875;SDS011;9570;50.854;13.778;2023-05-17T14:00:14;5.20;;;2.20;;
18875;SDS011;9570;50.854;13.778;2023-05-17T14:02:40;8.40;;;2.50;;
18875;SDS011;9570;50.854;13.778;2023-05-17T14:05:06;7.30;;;2.40;;
18875;SDS011;9570;50.854;13.778;2023-05-17T14:07:33;8.20;;;2.50;;
18875;SDS011;9570;50.854;13.778;2023-05-17T14:09:59;5.60;;;2.23;;
18875;SDS011;9570;50.854;13.778;2023-05-17T14:12:24;8.50;;;2.27;;
18875;SDS011;9570;50.854;13.778;2023-05-17T14:14:50;5.50;;;1.90;;
18875;SDS011;9570;50.854;13.778;2023-05-17T14:17:15;6.63;;;2.80;;
18875;SDS011;9570;50.854;13.778;2023-05-17T14:19:41;5.23;;;1.87;;
18875;SDS011;9570;50.854;13.778;2023-05-17T14:22:06;7.03;;;2.30;;
18875;SDS011;9570;50.854;13.778;2023-05-17T14:24:32;7.33;;;2.50;;
18875;SDS011;9570;50.854;13.778;2023-05-17T14:26:58;7.67;;;2.30;;
18875;SDS011;9570;50.854;13.778;2023-05-17T14:29:23;9.17;;;2.40;;
18875;SDS011;9570;50.854;13.778;2023-05-17T14:31:49;10.60;;;2.73;;
18875;SDS011;9570;50.854;13.778;2023-05-17T14:34:15;7.20;;;2.40;;
18875;SDS011;9570;50.854;13.778;2023-05-17T14:36:40;8.83;;;2.60;;
18875;SDS011;9570;50.854;13.778;2023-05-17T14:39:05;9.00;;;2.83;;
18875;SDS011;9570;50.854;13.778;2023-05-17T14:41:31;10.53;;;2.73;;
18875;SDS011;9570;50.854;13.778;2023-05-17T14:43:57;8.67;;;2.43;;
18875;SDS011;9570;50.854;13.778;2023-05-17T14:46:22;9.30;;;2.40;;
18875;SDS011;9570;50.854;13.778;2023-05-17T14:48:47;7.53;;;2.60;;
18875;SDS011;9570;50.854;13.778;2023-05-17T14:51:15;9.40;;;2.80;;
18875;SDS011;9570;50.854;13.778;2023-05-17T14:53:42;5.43;;;2.23;;